Saros B — HOSU — position and weather

sailwx.info

Track history (hours):
 
Tides and Currents Weather Stations Pressure Air Temp Water Temp Dewpoint Dewpoint Depression Visibility Wind Speed Wind Dir Waves Ship Positions

Saros B

Last reported at 2018-Jun-18 21:46 UTC. Time now 2018-Jun-20 11:29 UTC.
Position N 39°47' W 009°51'.

Length 110 m; draft 9.2 m.

Type: Cargo ship. MMSI: 356477000.

Date/timePositionNaut miles runAvg speedWind from/ knotsBaromVisibWave heightAir tempDewpointWater temp
2018-Jun-18 21:46N 39°47' W 009°51'2 9.5
2018-Jun-18 21:30N 39°45' W 009°51'5 9.5
2018-Jun-18 20:58N 39°39' W 009°51'5 9.4
2018-Jun-18 20:29N 39°35' W 009°51'10 9.6
2018-Jun-18 19:25N 39°25' W 009°51'4 9.5
2018-Jun-18 19:01N 39°21' W 009°51'5 9.8
2018-Jun-18 18:30N 39°16' W 009°51'5 9.9
2018-Jun-18 18:00N 39°11' W 009°51'5 9.6
2018-Jun-18 17:30N 39°06' W 009°51'5 9.6
2018-Jun-18 17:00N 39°01' W 009°52'5 9.8
2018-Jun-18 16:30N 38°56' W 009°52'5 9.7
2018-Jun-18 16:00N 38°52' W 009°52'5 9.9
2018-Jun-18 15:30N 38°47' W 009°52'5 9.6
2018-Jun-18 15:00N 38°42' W 009°51'5 9.5
2018-Jun-18 14:30N 38°37' W 009°50'5 9.2
2018-Jun-18 14:00N 38°33' W 009°49'4 8.9
2018-Jun-18 13:30N 38°29' W 009°47'4 8.8
2018-Jun-18 13:00N 38°24' W 009°46'5 9.1
2018-Jun-18 12:30N 38°20' W 009°45'4 8.7
2018-Jun-18 12:00N 38°16' W 009°44'4 8.8
2018-Jun-18 11:30N 38°11' W 009°42'5 9.0
2018-Jun-18 11:00N 38°07' W 009°41'4 9.0
2018-Jun-18 10:30N 38°03' W 009°40'5 9.2
2018-Jun-18 10:00N 37°58' W 009°39'5 9.6
2018-Jun-18 09:30N 37°53' W 009°37'5 9.5
2018-Jun-18 09:00N 37°49' W 009°36'5 9.8
2018-Jun-18 08:30N 37°44' W 009°35'5 9.8
2018-Jun-18 08:00N 37°39' W 009°33'5 9.9
2018-Jun-18 07:30N 37°34' W 009°32'510.3
2018-Jun-18 07:00N 37°29' W 009°30'510.1
2018-Jun-18 06:30N 37°24' W 009°29'42 9.9
2018-Jun-18 02:18N 36°45' W 009°10'17910.5
2018-Jun-17 09:14N 35°58' W 005°36'210.2
2018-Jun-17 09:00N 35°58' W 005°33'5 9.9
2018-Jun-17 08:30N 35°59' W 005°27'5 9.3
2018-Jun-17 08:00N 36°01' W 005°22'5 9.1
2018-Jun-17 07:30N 36°02' W 005°16'18910.6
2018-Jun-16 13:38N 36°39' W 001°26'2711.3
2018-Jun-16 11:15N 36°48' W 000°54'311.5
2018-Jun-16 11:00N 36°49' W 000°51'611.2
2018-Jun-16 10:31N 36°51' W 000°45'611.2
2018-Jun-16 10:00N 36°52' W 000°38'611.6
2018-Jun-16 09:30N 36°54' W 000°31'612.1
2018-Jun-16 09:00N 36°56' W 000°24'612.1
2018-Jun-16 08:29N 36°59' W 000°17'612.1
2018-Jun-16 08:00N 37°01' W 000°10'611.9
2018-Jun-16 07:30N 37°03' W 000°03'611.7
2018-Jun-16 07:00N 37°04' E 000°04'611.7
2018-Jun-16 06:30N 37°06' E 000°11'611.6
2018-Jun-16 06:00N 37°08' E 000°18'611.6
2018-Jun-16 05:31N 37°10' E 000°25'611.6
2018-Jun-16 05:00N 37°12' E 000°32'611.7
2018-Jun-16 04:31N 37°14' E 000°38'611.6
2018-Jun-16 04:00N 37°16' E 000°45'611.7
2018-Jun-16 03:30N 37°18' E 000°52'611.7
2018-Jun-16 02:59N 37°20' E 000°60'611.7
2018-Jun-16 02:29N 37°22' E 001°06'611.8
2018-Jun-16 02:00N 37°24' E 001°13'811.8
2018-Jun-16 01:18N 37°27' E 001°23'412.0
2018-Jun-16 01:00N 37°28' E 001°27'1111.7
2018-Jun-16 00:01N 37°32' E 001°41'111.8
2018-Jun-15 23:58N 37°32' E 001°41'611.5
2018-Jun-15 23:28N 37°34' E 001°48'611.8
2018-Jun-15 22:57N 37°34' E 001°56'611.8
2018-Jun-15 22:27N 37°34' E 002°03'2511.5
2018-Jun-15 20:19N 37°34' E 002°35'411.1
2018-Jun-15 19:56N 37°34' E 002°40'511.2
2018-Jun-15 19:30N 37°34' E 002°46'611.5
2018-Jun-15 19:00N 37°34' E 002°53'4511.5
2018-Jun-15 15:08N 37°35' E 003°50'211.5
2018-Jun-15 14:57N 37°35' E 003°52'511.6
2018-Jun-15 14:30N 37°35' E 003°59'611.4
2018-Jun-15 14:00N 37°35' E 004°06'  
2018-Jun-09 17:03N 31°33' E 031°46'  
Track history (hours):
 
Tides and Currents Weather Stations Pressure Air Temp Water Temp Dewpoint Dewpoint Depression Visibility Wind Speed Wind Dir Waves Ship Positions

Saros B

Last reported at 2018-Jun-18 21:46 UTC. Time now 2018-Jun-20 11:29 UTC.
Position N 39°47' W 009°51'.

Length 110 m; draft 9.2 m.

Type: Cargo ship. MMSI: 356477000.

Date/timePositionNaut miles runAvg speedWind from/ knotsBaromVisibWave heightAir tempDewpointWater temp
2018-Jun-18 21:46N 39°47' W 009°51'2 9.5
2018-Jun-18 21:30N 39°45' W 009°51'5 9.5
2018-Jun-18 20:58N 39°39' W 009°51'5 9.4
2018-Jun-18 20:29N 39°35' W 009°51'10 9.6
2018-Jun-18 19:25N 39°25' W 009°51'4 9.5
2018-Jun-18 19:01N 39°21' W 009°51'5 9.8
2018-Jun-18 18:30N 39°16' W 009°51'5 9.9
2018-Jun-18 18:00N 39°11' W 009°51'5 9.6
2018-Jun-18 17:30N 39°06' W 009°51'5 9.6
2018-Jun-18 17:00N 39°01' W 009°52'5 9.8
2018-Jun-18 16:30N 38°56' W 009°52'5 9.7
2018-Jun-18 16:00N 38°52' W 009°52'5 9.9
2018-Jun-18 15:30N 38°47' W 009°52'5 9.6
2018-Jun-18 15:00N 38°42' W 009°51'5 9.5
2018-Jun-18 14:30N 38°37' W 009°50'5 9.2
2018-Jun-18 14:00N 38°33' W 009°49'4 8.9
2018-Jun-18 13:30N 38°29' W 009°47'4 8.8
2018-Jun-18 13:00N 38°24' W 009°46'5 9.1
2018-Jun-18 12:30N 38°20' W 009°45'4 8.7
2018-Jun-18 12:00N 38°16' W 009°44'4 8.8
2018-Jun-18 11:30N 38°11' W 009°42'5 9.0
2018-Jun-18 11:00N 38°07' W 009°41'4 9.0
2018-Jun-18 10:30N 38°03' W 009°40'5 9.2
2018-Jun-18 10:00N 37°58' W 009°39'5 9.6
2018-Jun-18 09:30N 37°53' W 009°37'5 9.5
2018-Jun-18 09:00N 37°49' W 009°36'5 9.8
2018-Jun-18 08:30N 37°44' W 009°35'5 9.8
2018-Jun-18 08:00N 37°39' W 009°33'5 9.9
2018-Jun-18 07:30N 37°34' W 009°32'510.3
2018-Jun-18 07:00N 37°29' W 009°30'510.1
2018-Jun-18 06:30N 37°24' W 009°29'42 9.9
2018-Jun-18 02:18N 36°45' W 009°10'17910.5
2018-Jun-17 09:14N 35°58' W 005°36'210.2
2018-Jun-17 09:00N 35°58' W 005°33'5 9.9
2018-Jun-17 08:30N 35°59' W 005°27'5 9.3
2018-Jun-17 08:00N 36°01' W 005°22'5 9.1
2018-Jun-17 07:30N 36°02' W 005°16'18910.6
2018-Jun-16 13:38N 36°39' W 001°26'2711.3
2018-Jun-16 11:15N 36°48' W 000°54'311.5
2018-Jun-16 11:00N 36°49' W 000°51'611.2
2018-Jun-16 10:31N 36°51' W 000°45'611.2
2018-Jun-16 10:00N 36°52' W 000°38'611.6
2018-Jun-16 09:30N 36°54' W 000°31'612.1
2018-Jun-16 09:00N 36°56' W 000°24'612.1
2018-Jun-16 08:29N 36°59' W 000°17'612.1
2018-Jun-16 08:00N 37°01' W 000°10'611.9
2018-Jun-16 07:30N 37°03' W 000°03'611.7
2018-Jun-16 07:00N 37°04' E 000°04'611.7
2018-Jun-16 06:30N 37°06' E 000°11'611.6
2018-Jun-16 06:00N 37°08' E 000°18'611.6
2018-Jun-16 05:31N 37°10' E 000°25'611.6
2018-Jun-16 05:00N 37°12' E 000°32'611.7
2018-Jun-16 04:31N 37°14' E 000°38'611.6
2018-Jun-16 04:00N 37°16' E 000°45'611.7
2018-Jun-16 03:30N 37°18' E 000°52'611.7
2018-Jun-16 02:59N 37°20' E 000°60'611.7
2018-Jun-16 02:29N 37°22' E 001°06'611.8
2018-Jun-16 02:00N 37°24' E 001°13'811.8
2018-Jun-16 01:18N 37°27' E 001°23'412.0
2018-Jun-16 01:00N 37°28' E 001°27'1111.7
2018-Jun-16 00:01N 37°32' E 001°41'111.8
2018-Jun-15 23:58N 37°32' E 001°41'611.5
2018-Jun-15 23:28N 37°34' E 001°48'611.8
2018-Jun-15 22:57N 37°34' E 001°56'611.8
2018-Jun-15 22:27N 37°34' E 002°03'2511.5
2018-Jun-15 20:19N 37°34' E 002°35'411.1
2018-Jun-15 19:56N 37°34' E 002°40'511.2
2018-Jun-15 19:30N 37°34' E 002°46'611.5
2018-Jun-15 19:00N 37°34' E 002°53'4511.5
2018-Jun-15 15:08N 37°35' E 003°50'211.5
2018-Jun-15 14:57N 37°35' E 003°52'511.6
2018-Jun-15 14:30N 37°35' E 003°59'611.4
2018-Jun-15 14:00N 37°35' E 004°06'  
2018-Jun-09 17:03N 31°33' E 031°46'  

Dump ship's entire track history